sensor_id;sensor_type;location;lat;lon;timestamp;P1;durP1;ratioP1;P2;durP2;ratioP2
1402;SDS011;696;48.546;9.896;2022-10-16T00:01:04;5.57;;;1.48;;
1402;SDS011;696;48.546;9.896;2022-10-16T00:03:33;4.72;;;2.13;;
1402;SDS011;696;48.546;9.896;2022-10-16T00:05:59;6.68;;;2.20;;
1402;SDS011;696;48.546;9.896;2022-10-16T00:08:25;2.10;;;1.50;;
1402;SDS011;696;48.546;9.896;2022-10-16T00:10:51;6.55;;;1.40;;
1402;SDS011;696;48.546;9.896;2022-10-16T00:13:16;4.47;;;1.77;;
1402;SDS011;696;48.546;9.896;2022-10-16T00:15:42;9.50;;;1.52;;
1402;SDS011;696;48.546;9.896;2022-10-16T00:18:09;3.78;;;2.15;;
1402;SDS011;696;48.546;9.896;2022-10-16T00:20:35;8.57;;;2.08;;
1402;SDS011;696;48.546;9.896;2022-10-16T00:23:02;6.00;;;1.88;;
1402;SDS011;696;48.546;9.896;2022-10-16T00:25:28;4.55;;;1.80;;
1402;SDS011;696;48.546;9.896;2022-10-16T00:27:53;15.15;;;2.08;;
1402;SDS011;696;48.546;9.896;2022-10-16T00:30:19;2.55;;;1.60;;
1402;SDS011;696;48.546;9.896;2022-10-16T00:32:44;2.08;;;1.40;;
1402;SDS011;696;48.546;9.896;2022-10-16T00:35:10;5.38;;;1.90;;
1402;SDS011;696;48.546;9.896;2022-10-16T00:37:35;4.10;;;1.40;;
1402;SDS011;696;48.546;9.896;2022-10-16T00:40:01;3.08;;;1.33;;
1402;SDS011;696;48.546;9.896;2022-10-16T00:42:26;6.15;;;2.42;;
1402;SDS011;696;48.546;9.896;2022-10-16T00:44:53;3.83;;;1.80;;
1402;SDS011;696;48.546;9.896;2022-10-16T00:52:47;4.88;;;1.63;;
1402;SDS011;696;48.546;9.896;2022-10-16T00:55:13;8.70;;;1.52;;
1402;SDS011;696;48.546;9.896;2022-10-16T00:57:39;6.05;;;1.58;;
1402;SDS011;696;48.546;9.896;2022-10-16T01:00:05;11.23;;;1.70;;
1402;SDS011;696;48.546;9.896;2022-10-16T01:02:32;2.65;;;1.38;;
1402;SDS011;696;48.546;9.896;2022-10-16T01:04:58;6.28;;;1.23;;
1402;SDS011;696;48.546;9.896;2022-10-16T01:13:09;10.43;;;1.42;;
1402;SDS011;696;48.546;9.896;2022-10-16T01:15:47;4.47;;;1.15;;
1402;SDS011;696;48.546;9.896;2022-10-16T01:18:17;1.48;;;1.10;;
1402;SDS011;696;48.546;9.896;2022-10-16T01:29:03;6.85;;;1.45;;
1402;SDS011;696;48.546;9.896;2022-10-16T01:31:30;4.25;;;1.30;;
1402;SDS011;696;48.546;9.896;2022-10-16T01:34:02;6.78;;;1.73;;
1402;SDS011;696;48.546;9.896;2022-10-16T01:36:45;3.95;;;1.67;;
1402;SDS011;696;48.546;9.896;2022-10-16T01:39:14;2.00;;;1.40;;
1402;SDS011;696;48.546;9.896;2022-10-16T01:41:45;5.95;;;1.45;;
1402;SDS011;696;48.546;9.896;2022-10-16T01:44:16;19.08;;;2.13;;
1402;SDS011;696;48.546;9.896;2022-10-16T01:46:46;6.70;;;2.05;;
1402;SDS011;696;48.546;9.896;2022-10-16T01:49:12;9.52;;;1.35;;
1402;SDS011;696;48.546;9.896;2022-10-16T01:51:38;7.85;;;1.90;;
1402;SDS011;696;48.546;9.896;2022-10-16T01:54:04;7.10;;;2.20;;
1402;SDS011;696;48.546;9.896;2022-10-16T01:56:32;6.40;;;1.77;;
1402;SDS011;696;48.546;9.896;2022-10-16T01:59:00;6.65;;;1.83;;
1402;SDS011;696;48.546;9.896;2022-10-16T02:01:28;1.80;;;1.35;;
1402;SDS011;696;48.546;9.896;2022-10-16T02:03:55;2.40;;;1.63;;
1402;SDS011;696;48.546;9.896;2022-10-16T02:06:22;2.85;;;1.60;;
1402;SDS011;696;48.546;9.896;2022-10-16T02:08:48;2.92;;;1.90;;
1402;SDS011;696;48.546;9.896;2022-10-16T02:11:14;3.30;;;1.60;;
1402;SDS011;696;48.546;9.896;2022-10-16T02:13:41;9.35;;;1.45;;
1402;SDS011;696;48.546;9.896;2022-10-16T02:16:11;2.38;;;1.75;;
1402;SDS011;696;48.546;9.896;2022-10-16T02:18:38;4.75;;;2.10;;
1402;SDS011;696;48.546;9.896;2022-10-16T02:26:23;3.78;;;1.58;;
1402;SDS011;696;48.546;9.896;2022-10-16T02:28:56;2.83;;;1.75;;
1402;SDS011;696;48.546;9.896;2022-10-16T02:31:26;9.05;;;1.90;;
1402;SDS011;696;48.546;9.896;2022-10-16T02:33:53;1.75;;;1.60;;
1402;SDS011;696;48.546;9.896;2022-10-16T02:36:20;2.05;;;1.52;;
1402;SDS011;696;48.546;9.896;2022-10-16T02:38:46;2.00;;;1.38;;
1402;SDS011;696;48.546;9.896;2022-10-16T02:41:11;5.97;;;1.42;;
1402;SDS011;696;48.546;9.896;2022-10-16T02:43:37;3.85;;;1.90;;
1402;SDS011;696;48.546;9.896;2022-10-16T02:46:02;3.90;;;1.52;;
1402;SDS011;696;48.546;9.896;2022-10-16T02:48:27;4.05;;;1.67;;
1402;SDS011;696;48.546;9.896;2022-10-16T02:50:53;20.65;;;2.25;;
1402;SDS011;696;48.546;9.896;2022-10-16T02:53:18;7.45;;;2.00;;
1402;SDS011;696;48.546;9.896;2022-10-16T02:55:43;4.80;;;1.63;;
1402;SDS011;696;48.546;9.896;2022-10-16T02:58:09;7.18;;;1.98;;
1402;SDS011;696;48.546;9.896;2022-10-16T03:00:34;11.27;;;1.90;;
1402;SDS011;696;48.546;9.896;2022-10-16T03:02:59;3.03;;;1.77;;
1402;SDS011;696;48.546;9.896;2022-10-16T03:05:25;9.30;;;1.85;;
1402;SDS011;696;48.546;9.896;2022-10-16T03:07:50;3.15;;;1.92;;
1402;SDS011;696;48.546;9.896;2022-10-16T03:10:17;7.43;;;2.30;;
1402;SDS011;696;48.546;9.896;2022-10-16T03:12:42;3.97;;;2.13;;
1402;SDS011;696;48.546;9.896;2022-10-16T03:15:08;9.38;;;2.20;;
1402;SDS011;696;48.546;9.896;2022-10-16T03:17:33;4.93;;;1.88;;
1402;SDS011;696;48.546;9.896;2022-10-16T03:19:59;17.65;;;2.08;;
1402;SDS011;696;48.546;9.896;2022-10-16T03:22:25;3.40;;;2.35;;
1402;SDS011;696;48.546;9.896;2022-10-16T03:24:50;9.45;;;2.35;;
1402;SDS011;696;48.546;9.896;2022-10-16T03:27:16;2.72;;;2.25;;
1402;SDS011;696;48.546;9.896;2022-10-16T03:29:41;5.03;;;2.75;;
1402;SDS011;696;48.546;9.896;2022-10-16T03:32:06;15.75;;;2.83;;
1402;SDS011;696;48.546;9.896;2022-10-16T03:34:32;7.28;;;2.45;;
1402;SDS011;696;48.546;9.896;2022-10-16T03:36:57;2.60;;;2.10;;
1402;SDS011;696;48.546;9.896;2022-10-16T03:39:23;9.73;;;2.50;;
1402;SDS011;696;48.546;9.896;2022-10-16T03:41:48;3.78;;;2.30;;
1402;SDS011;696;48.546;9.896;2022-10-16T03:44:14;4.75;;;2.63;;
1402;SDS011;696;48.546;9.896;2022-10-16T03:46:39;7.03;;;3.10;;
1402;SDS011;696;48.546;9.896;2022-10-16T03:49:04;5.00;;;2.70;;
1402;SDS011;696;48.546;9.896;2022-10-16T03:51:30;19.83;;;2.60;;
1402;SDS011;696;48.546;9.896;2022-10-16T03:53:56;4.60;;;2.63;;
1402;SDS011;696;48.546;9.896;2022-10-16T03:56:21;4.80;;;3.05;;
1402;SDS011;696;48.546;9.896;2022-10-16T03:58:46;15.80;;;3.45;;
1402;SDS011;696;48.546;9.896;2022-10-16T04:01:12;7.72;;;3.67;;
1402;SDS011;696;48.546;9.896;2022-10-16T04:03:37;5.57;;;2.70;;
1402;SDS011;696;48.546;9.896;2022-10-16T04:06:02;11.30;;;3.00;;
1402;SDS011;696;48.546;9.896;2022-10-16T04:08:28;5.35;;;2.67;;
1402;SDS011;696;48.546;9.896;2022-10-16T04:10:53;3.72;;;2.80;;
1402;SDS011;696;48.546;9.896;2022-10-16T04:13:18;3.15;;;2.33;;
1402;SDS011;696;48.546;9.896;2022-10-16T04:15:44;3.30;;;2.13;;
1402;SDS011;696;48.546;9.896;2022-10-16T04:18:10;3.28;;;2.50;;
1402;SDS011;696;48.546;9.896;2022-10-16T04:20:35;9.57;;;2.80;;
1402;SDS011;696;48.546;9.896;2022-10-16T04:23:01;9.25;;;3.13;;
1402;SDS011;696;48.546;9.896;2022-10-16T04:25:26;15.13;;;3.00;;
1402;SDS011;696;48.546;9.896;2022-10-16T04:27:55;5.32;;;3.15;;
1402;SDS011;696;48.546;9.896;2022-10-16T04:30:20;9.15;;;2.70;;
1402;SDS011;696;48.546;9.896;2022-10-16T04:32:50;14.68;;;3.65;;
1402;SDS011;696;48.546;9.896;2022-10-16T04:35:19;5.60;;;3.60;;
1402;SDS011;696;48.546;9.896;2022-10-16T04:37:45;11.07;;;3.42;;
1402;SDS011;696;48.546;9.896;2022-10-16T04:40:11;12.20;;;4.30;;
1402;SDS011;696;48.546;9.896;2022-10-16T04:42:36;10.13;;;3.58;;
1402;SDS011;696;48.546;9.896;2022-10-16T04:45:02;3.92;;;3.30;;
1402;SDS011;696;48.546;9.896;2022-10-16T04:47:28;12.10;;;4.25;;
1402;SDS011;696;48.546;9.896;2022-10-16T04:49:53;4.30;;;3.53;;
1402;SDS011;696;48.546;9.896;2022-10-16T04:52:19;8.05;;;3.85;;
1402;SDS011;696;48.546;9.896;2022-10-16T04:54:46;8.55;;;4.20;;
1402;SDS011;696;48.546;9.896;2022-10-16T04:57:11;4.65;;;3.42;;
1402;SDS011;696;48.546;9.896;2022-10-16T04:59:37;4.03;;;3.40;;
1402;SDS011;696;48.546;9.896;2022-10-16T05:02:03;5.55;;;4.10;;
1402;SDS011;696;48.546;9.896;2022-10-16T05:04:28;8.82;;;3.92;;
1402;SDS011;696;48.546;9.896;2022-10-16T05:06:54;4.72;;;3.85;;
1402;SDS011;696;48.546;9.896;2022-10-16T05:09:19;5.95;;;3.63;;
1402;SDS011;696;48.546;9.896;2022-10-16T05:11:45;9.27;;;3.55;;
1402;SDS011;696;48.546;9.896;2022-10-16T05:14:10;13.10;;;3.45;;
1402;SDS011;696;48.546;9.896;2022-10-16T05:16:36;6.53;;;4.05;;
1402;SDS011;696;48.546;9.896;2022-10-16T05:19:01;7.32;;;3.67;;
1402;SDS011;696;48.546;9.896;2022-10-16T05:21:26;12.45;;;4.68;;
1402;SDS011;696;48.546;9.896;2022-10-16T05:23:52;8.98;;;4.30;;
1402;SDS011;696;48.546;9.896;2022-10-16T05:26:18;13.07;;;4.90;;
1402;SDS011;696;48.546;9.896;2022-10-16T05:28:44;9.60;;;4.13;;
1402;SDS011;696;48.546;9.896;2022-10-16T05:31:10;11.27;;;4.53;;
1402;SDS011;696;48.546;9.896;2022-10-16T05:33:35;6.10;;;4.28;;
1402;SDS011;696;48.546;9.896;2022-10-16T05:36:04;15.30;;;4.35;;
1402;SDS011;696;48.546;9.896;2022-10-16T05:38:32;11.43;;;4.68;;
1402;SDS011;696;48.546;9.896;2022-10-16T05:40:57;8.75;;;3.90;;
1402;SDS011;696;48.546;9.896;2022-10-16T05:43:23;5.13;;;3.70;;
1402;SDS011;696;48.546;9.896;2022-10-16T05:45:58;5.00;;;3.38;;
1402;SDS011;696;48.546;9.896;2022-10-16T05:48:25;5.72;;;2.97;;
1402;SDS011;696;48.546;9.896;2022-10-16T05:50:58;10.32;;;3.42;;
1402;SDS011;696;48.546;9.896;2022-10-16T05:53:24;10.07;;;3.05;;
1402;SDS011;696;48.546;9.896;2022-10-16T05:55:56;5.68;;;3.80;;
1402;SDS011;696;48.546;9.896;2022-10-16T05:58:23;7.90;;;3.45;;
1402;SDS011;696;48.546;9.896;2022-10-16T06:00:53;7.18;;;4.85;;
1402;SDS011;696;48.546;9.896;2022-10-16T06:03:21;6.40;;;4.93;;
1402;SDS011;696;48.546;9.896;2022-10-16T06:05:47;5.75;;;4.88;;
1402;SDS011;696;48.546;9.896;2022-10-16T06:08:12;7.70;;;5.80;;
1402;SDS011;696;48.546;9.896;2022-10-16T06:10:38;7.95;;;5.55;;
1402;SDS011;696;48.546;9.896;2022-10-16T06:13:03;14.50;;;5.88;;
1402;SDS011;696;48.546;9.896;2022-10-16T06:15:28;11.48;;;5.78;;
1402;SDS011;696;48.546;9.896;2022-10-16T06:17:54;7.95;;;5.35;;
1402;SDS011;696;48.546;9.896;2022-10-16T06:20:19;8.93;;;5.18;;
1402;SDS011;696;48.546;9.896;2022-10-16T06:22:44;6.85;;;4.88;;
1402;SDS011;696;48.546;9.896;2022-10-16T06:25:10;8.63;;;4.35;;
1402;SDS011;696;48.546;9.896;2022-10-16T06:27:35;6.38;;;4.45;;
1402;SDS011;696;48.546;9.896;2022-10-16T06:30:01;10.93;;;4.93;;
1402;SDS011;696;48.546;9.896;2022-10-16T06:32:27;11.30;;;4.47;;
1402;SDS011;696;48.546;9.896;2022-10-16T06:34:52;5.30;;;3.97;;
1402;SDS011;696;48.546;9.896;2022-10-16T06:37:17;6.00;;;4.80;;
1402;SDS011;696;48.546;9.896;2022-10-16T06:39:43;18.48;;;4.80;;
1402;SDS011;696;48.546;9.896;2022-10-16T06:42:08;8.40;;;4.68;;
1402;SDS011;696;48.546;9.896;2022-10-16T06:44:34;9.68;;;5.32;;
1402;SDS011;696;48.546;9.896;2022-10-16T06:46:59;9.43;;;4.18;;
1402;SDS011;696;48.546;9.896;2022-10-16T06:49:24;7.55;;;4.53;;
1402;SDS011;696;48.546;9.896;2022-10-16T06:51:49;7.07;;;4.75;;
1402;SDS011;696;48.546;9.896;2022-10-16T06:54:15;15.52;;;4.93;;
1402;SDS011;696;48.546;9.896;2022-10-16T06:56:41;7.07;;;4.40;;
1402;SDS011;696;48.546;9.896;2022-10-16T06:59:08;4.32;;;3.92;;
1402;SDS011;696;48.546;9.896;2022-10-16T07:01:33;6.70;;;4.35;;
1402;SDS011;696;48.546;9.896;2022-10-16T07:03:59;5.50;;;4.35;;
1402;SDS011;696;48.546;9.896;2022-10-16T07:06:26;8.20;;;4.97;;
1402;SDS011;696;48.546;9.896;2022-10-16T07:08:52;6.60;;;4.35;;
1402;SDS011;696;48.546;9.896;2022-10-16T07:11:19;6.38;;;3.78;;
1402;SDS011;696;48.546;9.896;2022-10-16T07:13:46;9.57;;;3.75;;
1402;SDS011;696;48.546;9.896;2022-10-16T07:16:16;12.77;;;4.38;;
1402;SDS011;696;48.546;9.896;2022-10-16T07:18:42;10.82;;;4.45;;
1402;SDS011;696;48.546;9.896;2022-10-16T07:21:11;28.33;;;4.88;;
1402;SDS011;696;48.546;9.896;2022-10-16T07:23:38;9.30;;;4.28;;
1402;SDS011;696;48.546;9.896;2022-10-16T07:26:04;7.15;;;4.80;;
1402;SDS011;696;48.546;9.896;2022-10-16T07:28:30;10.73;;;6.60;;
1402;SDS011;696;48.546;9.896;2022-10-16T07:31:00;14.90;;;5.72;;
1402;SDS011;696;48.546;9.896;2022-10-16T07:33:29;12.32;;;4.47;;
1402;SDS011;696;48.546;9.896;2022-10-16T07:35:55;8.95;;;5.38;;
1402;SDS011;696;48.546;9.896;2022-10-16T07:38:20;20.73;;;18.00;;
1402;SDS011;696;48.546;9.896;2022-10-16T07:40:46;12.60;;;11.23;;
1402;SDS011;696;48.546;9.896;2022-10-16T07:43:12;10.15;;;5.90;;
1402;SDS011;696;48.546;9.896;2022-10-16T07:45:38;7.80;;;4.78;;
1402;SDS011;696;48.546;9.896;2022-10-16T07:48:12;6.53;;;4.85;;
1402;SDS011;696;48.546;9.896;2022-10-16T07:50:37;4.95;;;4.00;;
1402;SDS011;696;48.546;9.896;2022-10-16T07:53:03;4.85;;;3.60;;
1402;SDS011;696;48.546;9.896;2022-10-16T07:55:29;7.20;;;4.03;;
1402;SDS011;696;48.546;9.896;2022-10-16T07:57:54;8.63;;;3.58;;
1402;SDS011;696;48.546;9.896;2022-10-16T08:00:19;8.13;;;3.88;;
1402;SDS011;696;48.546;9.896;2022-10-16T08:02:45;9.45;;;4.13;;
1402;SDS011;696;48.546;9.896;2022-10-16T08:05:10;9.00;;;6.15;;
1402;SDS011;696;48.546;9.896;2022-10-16T08:07:35;13.88;;;5.85;;
1402;SDS011;696;48.546;9.896;2022-10-16T08:10:01;7.97;;;4.80;;
1402;SDS011;696;48.546;9.896;2022-10-16T08:12:26;8.35;;;4.90;;
1402;SDS011;696;48.546;9.896;2022-10-16T08:14:52;5.35;;;3.03;;
1402;SDS011;696;48.546;9.896;2022-10-16T08:17:17;3.92;;;2.83;;
1402;SDS011;696;48.546;9.896;2022-10-16T08:19:46;8.82;;;2.78;;
1402;SDS011;696;48.546;9.896;2022-10-16T08:22:15;22.70;;;5.50;;
1402;SDS011;696;48.546;9.896;2022-10-16T08:24:40;15.05;;;4.43;;
1402;SDS011;696;48.546;9.896;2022-10-16T08:27:06;7.07;;;3.40;;
1402;SDS011;696;48.546;9.896;2022-10-16T08:29:31;7.78;;;3.47;;
1402;SDS011;696;48.546;9.896;2022-10-16T08:31:57;4.75;;;3.20;;
1402;SDS011;696;48.546;9.896;2022-10-16T08:34:22;8.27;;;3.05;;
1402;SDS011;696;48.546;9.896;2022-10-16T08:36:47;7.05;;;3.70;;
1402;SDS011;696;48.546;9.896;2022-10-16T08:39:13;8.70;;;3.22;;
1402;SDS011;696;48.546;9.896;2022-10-16T08:48:00;4.53;;;2.90;;
1402;SDS011;696;48.546;9.896;2022-10-16T08:50:18;5.75;;;3.08;;
1402;SDS011;696;48.546;9.896;2022-10-16T08:52:50;5.70;;;2.95;;
1402;SDS011;696;48.546;9.896;2022-10-16T08:57:57;7.40;;;2.80;;
1402;SDS011;696;48.546;9.896;2022-10-16T09:00:23;7.20;;;2.17;;
1402;SDS011;696;48.546;9.896;2022-10-16T09:02:51;7.45;;;2.75;;
1402;SDS011;696;48.546;9.896;2022-10-16T09:08:01;3.10;;;2.50;;
1402;SDS011;696;48.546;9.896;2022-10-16T09:13:17;4.65;;;1.90;;
1402;SDS011;696;48.546;9.896;2022-10-16T09:18:23;5.18;;;2.67;;
1402;SDS011;696;48.546;9.896;2022-10-16T09:23:45;6.45;;;2.28;;
1402;SDS011;696;48.546;9.896;2022-10-16T09:26:14;5.90;;;2.53;;
1402;SDS011;696;48.546;9.896;2022-10-16T09:28:40;5.65;;;2.38;;
1402;SDS011;696;48.546;9.896;2022-10-16T09:31:07;5.20;;;2.15;;
1402;SDS011;696;48.546;9.896;2022-10-16T09:33:36;20.23;;;2.83;;
1402;SDS011;696;48.546;9.896;2022-10-16T09:36:03;7.40;;;2.30;;
1402;SDS011;696;48.546;9.896;2022-10-16T09:38:34;4.63;;;2.45;;
1402;SDS011;696;48.546;9.896;2022-10-16T09:41:02;6.65;;;2.03;;
1402;SDS011;696;48.546;9.896;2022-10-16T09:48:50;8.70;;;2.50;;
1402;SDS011;696;48.546;9.896;2022-10-16T09:51:24;15.23;;;2.45;;
1402;SDS011;696;48.546;9.896;2022-10-16T09:53:53;9.80;;;1.95;;
1402;SDS011;696;48.546;9.896;2022-10-16T09:56:24;3.83;;;1.73;;
1402;SDS011;696;48.546;9.896;2022-10-16T09:58:55;7.28;;;2.00;;
1402;SDS011;696;48.546;9.896;2022-10-16T10:01:22;2.92;;;1.60;;
1402;SDS011;696;48.546;9.896;2022-10-16T10:03:55;1.40;;;1.20;;
1402;SDS011;696;48.546;9.896;2022-10-16T10:06:26;4.90;;;1.50;;
1402;SDS011;696;48.546;9.896;2022-10-16T10:09:04;5.15;;;1.20;;
1402;SDS011;696;48.546;9.896;2022-10-16T10:11:48;3.28;;;1.65;;
1402;SDS011;696;48.546;9.896;2022-10-16T10:19:29;2.08;;;1.38;;
1402;SDS011;696;48.546;9.896;2022-10-16T10:21:54;3.55;;;1.30;;
1402;SDS011;696;48.546;9.896;2022-10-16T10:24:20;2.80;;;1.10;;
1402;SDS011;696;48.546;9.896;2022-10-16T10:26:57;2.17;;;1.30;;
1402;SDS011;696;48.546;9.896;2022-10-16T10:33:00;3.33;;;1.42;;
1402;SDS011;696;48.546;9.896;2022-10-16T10:40:52;2.95;;;1.25;;
1402;SDS011;696;48.546;9.896;2022-10-16T10:58:07;2.55;;;1.58;;
1402;SDS011;696;48.546;9.896;2022-10-16T11:06:40;1.90;;;1.20;;
1402;SDS011;696;48.546;9.896;2022-10-16T11:09:12;1.75;;;1.30;;
1402;SDS011;696;48.546;9.896;2022-10-16T11:11:43;4.40;;;1.80;;
1402;SDS011;696;48.546;9.896;2022-10-16T11:14:13;9.52;;;5.10;;
1402;SDS011;696;48.546;9.896;2022-10-16T11:16:51;8.45;;;3.78;;
1402;SDS011;696;48.546;9.896;2022-10-16T11:21:54;5.97;;;4.33;;
1402;SDS011;696;48.546;9.896;2022-10-16T11:24:45;3.08;;;1.95;;
1402;SDS011;696;48.546;9.896;2022-10-16T11:27:16;4.07;;;2.03;;
1402;SDS011;696;48.546;9.896;2022-10-16T11:29:51;5.18;;;1.40;;
1402;SDS011;696;48.546;9.896;2022-10-16T11:32:22;3.53;;;1.27;;
1402;SDS011;696;48.546;9.896;2022-10-16T11:35:00;2.63;;;1.40;;
1402;SDS011;696;48.546;9.896;2022-10-16T11:37:34;2.95;;;1.17;;
1402;SDS011;696;48.546;9.896;2022-10-16T11:40:11;2.38;;;1.17;;
1402;SDS011;696;48.546;9.896;2022-10-16T11:42:46;3.08;;;0.93;;
1402;SDS011;696;48.546;9.896;2022-10-16T11:47:54;2.72;;;1.00;;
1402;SDS011;696;48.546;9.896;2022-10-16T11:55:47;1.70;;;0.73;;
1402;SDS011;696;48.546;9.896;2022-10-16T12:08:27;3.75;;;0.82;;
1402;SDS011;696;48.546;9.896;2022-10-16T12:10:53;4.68;;;0.93;;
1402;SDS011;696;48.546;9.896;2022-10-16T12:13:30;1.83;;;0.88;;
1402;SDS011;696;48.546;9.896;2022-10-16T12:16:04;1.92;;;0.85;;
1402;SDS011;696;48.546;9.896;2022-10-16T12:18:39;8.65;;;1.10;;
1402;SDS011;696;48.546;9.896;2022-10-16T12:21:05;1.70;;;0.60;;
1402;SDS011;696;48.546;9.896;2022-10-16T12:23:38;6.85;;;1.00;;
1402;SDS011;696;48.546;9.896;2022-10-16T12:26:12;3.67;;;0.70;;
1402;SDS011;696;48.546;9.896;2022-10-16T12:28:37;1.20;;;1.00;;
1402;SDS011;696;48.546;9.896;2022-10-16T12:31:07;1.58;;;0.82;;
1402;SDS011;696;48.546;9.896;2022-10-16T12:33:39;0.95;;;0.70;;
1402;SDS011;696;48.546;9.896;2022-10-16T12:36:16;8.98;;;1.00;;
1402;SDS011;696;48.546;9.896;2022-10-16T12:38:52;1.58;;;0.75;;
1402;SDS011;696;48.546;9.896;2022-10-16T12:41:31;3.65;;;0.70;;
1402;SDS011;696;48.546;9.896;2022-10-16T12:43:58;2.15;;;0.77;;
1402;SDS011;696;48.546;9.896;2022-10-16T12:49:04;9.43;;;0.90;;
1402;SDS011;696;48.546;9.896;2022-10-16T12:51:39;2.25;;;1.20;;
1402;SDS011;696;48.546;9.896;2022-10-16T12:59:24;2.95;;;0.90;;
1402;SDS011;696;48.546;9.896;2022-10-16T13:18:26;8.02;;;1.13;;
1402;SDS011;696;48.546;9.896;2022-10-16T13:21:04;3.95;;;0.60;;
1402;SDS011;696;48.546;9.896;2022-10-16T13:23:43;3.85;;;0.90;;
1402;SDS011;696;48.546;9.896;2022-10-16T13:26:33;2.08;;;0.68;;
1402;SDS011;696;48.546;9.896;2022-10-16T13:29:03;2.53;;;0.90;;
1402;SDS011;696;48.546;9.896;2022-10-16T13:31:29;2.67;;;0.70;;
1402;SDS011;696;48.546;9.896;2022-10-16T13:33:56;4.15;;;0.70;;
1402;SDS011;696;48.546;9.896;2022-10-16T13:36:28;1.45;;;0.60;;
1402;SDS011;696;48.546;9.896;2022-10-16T13:41:35;1.33;;;0.82;;
1402;SDS011;696;48.546;9.896;2022-10-16T13:44:01;3.65;;;0.73;;
1402;SDS011;696;48.546;9.896;2022-10-16T13:46:26;3.63;;;0.70;;
1402;SDS011;696;48.546;9.896;2022-10-16T13:49:02;3.30;;;0.90;;
1402;SDS011;696;48.546;9.896;2022-10-16T13:51:29;2.33;;;0.80;;
1402;SDS011;696;48.546;9.896;2022-10-16T13:53:55;1.58;;;0.80;;
1402;SDS011;696;48.546;9.896;2022-10-16T13:56:25;4.68;;;0.77;;
1402;SDS011;696;48.546;9.896;2022-10-16T13:59:02;2.92;;;1.00;;
1402;SDS011;696;48.546;9.896;2022-10-16T14:01:47;3.92;;;1.20;;
1402;SDS011;696;48.546;9.896;2022-10-16T14:04:12;3.78;;;0.70;;
1402;SDS011;696;48.546;9.896;2022-10-16T14:06:42;4.20;;;0.85;;
1402;SDS011;696;48.546;9.896;2022-10-16T14:11:53;3.05;;;1.10;;
1402;SDS011;696;48.546;9.896;2022-10-16T14:14:20;2.08;;;0.90;;
1402;SDS011;696;48.546;9.896;2022-10-16T14:16:45;6.05;;;1.10;;
1402;SDS011;696;48.546;9.896;2022-10-16T14:19:29;11.38;;;1.20;;
1402;SDS011;696;48.546;9.896;2022-10-16T14:21:55;2.65;;;1.20;;
1402;SDS011;696;48.546;9.896;2022-10-16T14:24:26;5.45;;;0.77;;
1402;SDS011;696;48.546;9.896;2022-10-16T14:26:52;3.92;;;0.90;;
1402;SDS011;696;48.546;9.896;2022-10-16T14:29:20;4.65;;;1.10;;
1402;SDS011;696;48.546;9.896;2022-10-16T14:32:02;2.70;;;1.10;;
1402;SDS011;696;48.546;9.896;2022-10-16T14:34:35;3.13;;;1.25;;
1402;SDS011;696;48.546;9.896;2022-10-16T14:39:50;4.15;;;1.13;;
1402;SDS011;696;48.546;9.896;2022-10-16T14:42:19;1.92;;;1.00;;
1402;SDS011;696;48.546;9.896;2022-10-16T14:44:48;5.70;;;1.20;;
1402;SDS011;696;48.546;9.896;2022-10-16T14:47:16;8.18;;;1.02;;
1402;SDS011;696;48.546;9.896;2022-10-16T14:49:47;6.03;;;1.05;;
1402;SDS011;696;48.546;9.896;2022-10-16T14:52:12;1.58;;;1.23;;
1402;SDS011;696;48.546;9.896;2022-10-16T14:54:39;6.25;;;1.15;;
1402;SDS011;696;48.546;9.896;2022-10-16T14:57:04;3.70;;;1.35;;
1402;SDS011;696;48.546;9.896;2022-10-16T14:59:39;1.80;;;0.85;;
1402;SDS011;696;48.546;9.896;2022-10-16T15:02:28;5.68;;;1.50;;
1402;SDS011;696;48.546;9.896;2022-10-16T15:04:55;2.05;;;1.10;;
1402;SDS011;696;48.546;9.896;2022-10-16T15:07:21;2.17;;;1.25;;
1402;SDS011;696;48.546;9.896;2022-10-16T15:09:47;3.53;;;1.90;;
1402;SDS011;696;48.546;9.896;2022-10-16T15:12:12;4.05;;;2.65;;
1402;SDS011;696;48.546;9.896;2022-10-16T15:14:38;19.70;;;2.03;;
1402;SDS011;696;48.546;9.896;2022-10-16T15:17:03;5.80;;;1.95;;
1402;SDS011;696;48.546;9.896;2022-10-16T15:19:28;3.05;;;1.30;;
1402;SDS011;696;48.546;9.896;2022-10-16T15:21:54;13.50;;;1.60;;
1402;SDS011;696;48.546;9.896;2022-10-16T15:24:19;5.80;;;1.75;;
1402;SDS011;696;48.546;9.896;2022-10-16T15:26:45;6.63;;;2.22;;
1402;SDS011;696;48.546;9.896;2022-10-16T15:29:14;4.97;;;1.55;;
1402;SDS011;696;48.546;9.896;2022-10-16T15:31:40;5.60;;;1.35;;
1402;SDS011;696;48.546;9.896;2022-10-16T15:34:08;7.47;;;1.55;;
1402;SDS011;696;48.546;9.896;2022-10-16T15:36:35;7.45;;;1.45;;
1402;SDS011;696;48.546;9.896;2022-10-16T15:39:05;5.10;;;1.80;;
1402;SDS011;696;48.546;9.896;2022-10-16T15:41:39;4.40;;;1.40;;
1402;SDS011;696;48.546;9.896;2022-10-16T15:44:04;17.13;;;1.58;;
1402;SDS011;696;48.546;9.896;2022-10-16T15:46:30;5.40;;;1.65;;
1402;SDS011;696;48.546;9.896;2022-10-16T15:48:56;3.47;;;1.42;;
1402;SDS011;696;48.546;9.896;2022-10-16T15:51:22;2.35;;;1.20;;
1402;SDS011;696;48.546;9.896;2022-10-16T15:53:48;7.20;;;1.80;;
1402;SDS011;696;48.546;9.896;2022-10-16T15:56:15;8.00;;;1.85;;
1402;SDS011;696;48.546;9.896;2022-10-16T15:58:41;14.85;;;2.08;;
1402;SDS011;696;48.546;9.896;2022-10-16T16:01:07;5.63;;;1.50;;
1402;SDS011;696;48.546;9.896;2022-10-16T16:03:34;7.72;;;1.90;;
1402;SDS011;696;48.546;9.896;2022-10-16T16:06:04;8.85;;;1.70;;
1402;SDS011;696;48.546;9.896;2022-10-16T16:08:32;6.85;;;2.30;;
1402;SDS011;696;48.546;9.896;2022-10-16T16:11:01;12.38;;;1.80;;
1402;SDS011;696;48.546;9.896;2022-10-16T16:13:31;19.17;;;1.98;;
1402;SDS011;696;48.546;9.896;2022-10-16T16:15:57;14.88;;;2.33;;
1402;SDS011;696;48.546;9.896;2022-10-16T16:18:22;23.40;;;2.20;;
1402;SDS011;696;48.546;9.896;2022-10-16T16:20:49;7.10;;;1.73;;
1402;SDS011;696;48.546;9.896;2022-10-16T16:23:15;3.00;;;1.83;;
1402;SDS011;696;48.546;9.896;2022-10-16T16:25:40;24.73;;;1.98;;
1402;SDS011;696;48.546;9.896;2022-10-16T16:28:05;8.40;;;2.17;;
1402;SDS011;696;48.546;9.896;2022-10-16T16:30:32;17.30;;;2.40;;
1402;SDS011;696;48.546;9.896;2022-10-16T16:32:57;4.65;;;1.63;;
1402;SDS011;696;48.546;9.896;2022-10-16T16:35:22;5.93;;;2.08;;
1402;SDS011;696;48.546;9.896;2022-10-16T16:37:48;4.13;;;1.75;;
1402;SDS011;696;48.546;9.896;2022-10-16T16:40:13;7.22;;;1.60;;
1402;SDS011;696;48.546;9.896;2022-10-16T16:42:39;3.88;;;1.52;;
1402;SDS011;696;48.546;9.896;2022-10-16T16:45:04;28.58;;;2.75;;
1402;SDS011;696;48.546;9.896;2022-10-16T16:47:30;5.80;;;2.00;;
1402;SDS011;696;48.546;9.896;2022-10-16T16:49:55;2.83;;;1.83;;
1402;SDS011;696;48.546;9.896;2022-10-16T16:52:21;5.85;;;1.70;;
1402;SDS011;696;48.546;9.896;2022-10-16T16:54:47;8.27;;;1.85;;
1402;SDS011;696;48.546;9.896;2022-10-16T16:57:17;8.25;;;1.90;;
1402;SDS011;696;48.546;9.896;2022-10-16T16:59:43;4.88;;;2.00;;
1402;SDS011;696;48.546;9.896;2022-10-16T17:02:08;6.53;;;1.70;;
1402;SDS011;696;48.546;9.896;2022-10-16T17:04:34;9.98;;;1.90;;
1402;SDS011;696;48.546;9.896;2022-10-16T17:06:59;9.95;;;2.35;;
1402;SDS011;696;48.546;9.896;2022-10-16T17:09:25;16.13;;;4.68;;
1402;SDS011;696;48.546;9.896;2022-10-16T17:11:50;17.88;;;10.50;;
1402;SDS011;696;48.546;9.896;2022-10-16T17:14:15;14.15;;;3.75;;
1402;SDS011;696;48.546;9.896;2022-10-16T17:16:41;5.78;;;2.63;;
1402;SDS011;696;48.546;9.896;2022-10-16T17:19:14;26.08;;;2.38;;
1402;SDS011;696;48.546;9.896;2022-10-16T17:21:40;20.35;;;2.15;;
1402;SDS011;696;48.546;9.896;2022-10-16T17:24:06;14.23;;;6.28;;
1402;SDS011;696;48.546;9.896;2022-10-16T17:26:32;6.82;;;2.83;;
1402;SDS011;696;48.546;9.896;2022-10-16T17:28:59;7.45;;;2.05;;
1402;SDS011;696;48.546;9.896;2022-10-16T17:31:26;13.85;;;2.40;;
1402;SDS011;696;48.546;9.896;2022-10-16T17:33:53;7.70;;;1.90;;
1402;SDS011;696;48.546;9.896;2022-10-16T17:36:19;5.55;;;1.98;;
1402;SDS011;696;48.546;9.896;2022-10-16T17:38:45;8.18;;;2.42;;
1402;SDS011;696;48.546;9.896;2022-10-16T17:41:19;6.57;;;2.65;;
1402;SDS011;696;48.546;9.896;2022-10-16T17:43:45;15.90;;;2.40;;
1402;SDS011;696;48.546;9.896;2022-10-16T17:46:11;9.98;;;2.53;;
1402;SDS011;696;48.546;9.896;2022-10-16T17:48:41;6.85;;;2.38;;